sensor_id;sensor_type;location;lat;lon;timestamp;pressure;altitude;pressure_sealevel;temperature;humidity
31585;BME280;18191;51.288;12.390;2023-06-10T00:04:39;48903.41;;;-144.47;53.28
31585;BME280;18191;51.288;12.390;2023-06-10T00:09:30;48885.50;;;-144.47;53.68
31585;BME280;18191;51.288;12.390;2023-06-10T00:14:20;48863.63;;;-144.47;53.98
31585;BME280;18191;51.288;12.390;2023-06-10T00:19:11;48851.69;;;-144.47;54.94
31585;BME280;18191;51.288;12.390;2023-06-10T00:24:04;48869.59;;;-144.47;55.36
31585;BME280;18191;51.288;12.390;2023-06-10T00:28:55;48879.53;;;-144.47;55.55
31585;BME280;18191;51.288;12.390;2023-06-10T00:33:45;48891.47;;;-144.47;55.46
31585;BME280;18191;51.288;12.390;2023-06-10T00:38:35;48845.72;;;-144.47;55.25
31585;BME280;18191;51.288;12.390;2023-06-10T00:43:26;48889.50;;;-144.47;55.48
31585;BME280;18191;51.288;12.390;2023-06-10T00:48:17;48873.56;;;-144.47;55.52
31585;BME280;18191;51.288;12.390;2023-06-10T00:53:08;48853.69;;;-144.47;55.77
31585;BME280;18191;51.288;12.390;2023-06-10T00:57:58;48889.50;;;-144.47;55.91
31585;BME280;18191;51.288;12.390;2023-06-10T01:02:49;48861.63;;;-144.47;55.26
31585;BME280;18191;51.288;12.390;2023-06-10T01:08:03;48861.63;;;-144.47;55.67
31585;BME280;18191;51.288;12.390;2023-06-10T01:12:58;48849.69;;;-144.47;55.76
31585;BME280;18191;51.288;12.390;2023-06-10T01:18:00;48885.50;;;-144.47;55.77
31585;BME280;18191;51.288;12.390;2023-06-10T01:22:52;48885.50;;;-144.47;55.86
31585;BME280;18191;51.288;12.390;2023-06-10T01:27:46;48867.59;;;-144.47;56.42
31585;BME280;18191;51.288;12.390;2023-06-10T01:32:50;48869.59;;;-144.47;55.94
31585;BME280;18191;51.288;12.390;2023-06-10T01:37:43;48869.59;;;-144.47;56.83
31585;BME280;18191;51.288;12.390;2023-06-10T01:42:35;48861.63;;;-144.47;58.16
31585;BME280;18191;51.288;12.390;2023-06-10T01:47:26;48895.44;;;-144.47;57.60
31585;BME280;18191;51.288;12.390;2023-06-10T01:52:16;48843.72;;;-144.47;58.14
31585;BME280;18191;51.288;12.390;2023-06-10T01:57:06;48855.66;;;-144.47;57.90
31585;BME280;18191;51.288;12.390;2023-06-10T02:01:57;48883.53;;;-144.47;58.71
31585;BME280;18191;51.288;12.390;2023-06-10T02:06:47;48889.50;;;-144.47;60.67
31585;BME280;18191;51.288;12.390;2023-06-10T02:11:38;48865.63;;;-144.47;60.81
31585;BME280;18191;51.288;12.390;2023-06-10T02:16:28;48885.50;;;-144.47;61.59
31585;BME280;18191;51.288;12.390;2023-06-10T02:21:18;48905.41;;;-144.47;61.58
31585;BME280;18191;51.288;12.390;2023-06-10T02:26:08;48885.50;;;-144.47;61.75
31585;BME280;18191;51.288;12.390;2023-06-10T02:30:59;48885.50;;;-144.47;61.33
31585;BME280;18191;51.288;12.390;2023-06-10T02:35:50;48845.72;;;-144.47;61.56
31585;BME280;18191;51.288;12.390;2023-06-10T02:40:40;48873.56;;;-144.47;61.79
31585;BME280;18191;51.288;12.390;2023-06-10T02:45:31;48869.59;;;-144.47;61.25
31585;BME280;18191;51.288;12.390;2023-06-10T02:50:21;48853.69;;;-144.47;62.74
31585;BME280;18191;51.288;12.390;2023-06-10T02:55:12;48845.72;;;-144.47;63.04
31585;BME280;18191;51.288;12.390;2023-06-10T03:00:02;48845.72;;;-144.47;62.72
31585;BME280;18191;51.288;12.390;2023-06-10T03:04:59;48895.44;;;-144.47;64.32
31585;BME280;18191;51.288;12.390;2023-06-10T03:09:50;48879.53;;;-144.47;64.42
31585;BME280;18191;51.288;12.390;2023-06-10T03:14:41;48839.75;;;-144.47;64.40
31585;BME280;18191;51.288;12.390;2023-06-10T03:19:31;48861.63;;;-144.47;64.98
31585;BME280;18191;51.288;12.390;2023-06-10T03:24:23;48825.84;;;-144.47;65.13
31585;BME280;18191;51.288;12.390;2023-06-10T03:29:13;48861.63;;;-144.47;66.10
31585;BME280;18191;51.288;12.390;2023-06-10T03:34:04;48831.81;;;-144.47;66.82
31585;BME280;18191;51.288;12.390;2023-06-10T03:38:54;48859.66;;;-144.47;66.18
31585;BME280;18191;51.288;12.390;2023-06-10T03:43:46;48885.50;;;-144.47;66.25
31585;BME280;18191;51.288;12.390;2023-06-10T03:48:37;48901.41;;;-144.47;66.66
31585;BME280;18191;51.288;12.390;2023-06-10T03:53:28;48857.66;;;-144.47;66.64
31585;BME280;18191;51.288;12.390;2023-06-10T03:58:19;48871.59;;;-144.47;66.35
31585;BME280;18191;51.288;12.390;2023-06-10T04:03:09;48851.69;;;-144.47;66.84
31585;BME280;18191;51.288;12.390;2023-06-10T04:08:04;48873.56;;;-144.47;66.62
31585;BME280;18191;51.288;12.390;2023-06-10T04:12:55;48891.47;;;-144.47;67.23
31585;BME280;18191;51.288;12.390;2023-06-10T04:17:45;48917.34;;;-144.47;67.45
31585;BME280;18191;51.288;12.390;2023-06-10T04:22:35;48913.34;;;-144.47;67.02
31585;BME280;18191;51.288;12.390;2023-06-10T04:27:26;48883.53;;;-144.47;67.47
31585;BME280;18191;51.288;12.390;2023-06-10T04:32:17;48895.44;;;-144.47;66.06
31585;BME280;18191;51.288;12.390;2023-06-10T04:37:07;48865.63;;;-144.47;66.43
31585;BME280;18191;51.288;12.390;2023-06-10T04:41:57;48849.69;;;-144.47;66.50
31585;BME280;18191;51.288;12.390;2023-06-10T04:46:47;48921.31;;;-144.47;66.59
31585;BME280;18191;51.288;12.390;2023-06-10T04:51:38;48869.59;;;-144.47;66.06
31585;BME280;18191;51.288;12.390;2023-06-10T04:56:28;48881.53;;;-144.47;60.64
31585;BME280;18191;51.288;12.390;2023-06-10T05:01:18;48869.59;;;-144.47;49.34
31585;BME280;18191;51.288;12.390;2023-06-10T05:06:09;48841.75;;;-144.47;41.72
31585;BME280;18191;51.288;12.390;2023-06-10T05:11:00;48825.84;;;-144.47;38.55
31585;BME280;18191;51.288;12.390;2023-06-10T05:15:50;48835.78;;;-144.47;36.90
31585;BME280;18191;51.288;12.390;2023-06-10T05:20:40;48843.72;;;-144.47;36.81
31585;BME280;18191;51.288;12.390;2023-06-10T05:25:31;48809.91;;;-144.47;38.35
31585;BME280;18191;51.288;12.390;2023-06-10T05:30:22;48786.06;;;-144.47;35.77
31585;BME280;18191;51.288;12.390;2023-06-10T05:35:14;48798.00;;;-144.47;36.55
31585;BME280;18191;51.288;12.390;2023-06-10T05:40:05;48821.84;;;-144.47;39.21
31585;BME280;18191;51.288;12.390;2023-06-10T05:44:56;48788.03;;;-144.47;39.88
31585;BME280;18191;51.288;12.390;2023-06-10T05:49:46;48817.88;;;-144.47;39.85
31585;BME280;18191;51.288;12.390;2023-06-10T05:54:38;48817.88;;;-144.47;41.99
31585;BME280;18191;51.288;12.390;2023-06-10T05:59:28;48853.69;;;-144.47;41.50
31585;BME280;18191;51.288;12.390;2023-06-10T06:04:19;48807.94;;;-144.47;41.62
31585;BME280;18191;51.288;12.390;2023-06-10T06:09:09;48794.00;;;-144.47;42.70
31585;BME280;18191;51.288;12.390;2023-06-10T06:13:59;48839.75;;;-144.47;46.08
31585;BME280;18191;51.288;12.390;2023-06-10T06:18:50;48853.69;;;-144.47;46.52
31585;BME280;18191;51.288;12.390;2023-06-10T06:23:40;48873.56;;;-144.47;45.85
31585;BME280;18191;51.288;12.390;2023-06-10T06:28:30;48807.94;;;-144.47;44.58
31585;BME280;18191;51.288;12.390;2023-06-10T06:33:21;48833.78;;;-144.47;48.50
31585;BME280;18191;51.288;12.390;2023-06-10T06:38:11;48865.63;;;-144.47;44.93
31585;BME280;18191;51.288;12.390;2023-06-10T06:43:02;48841.75;;;-144.47;48.83
31585;BME280;18191;51.288;12.390;2023-06-10T06:47:52;48843.72;;;-144.47;48.14
31585;BME280;18191;51.288;12.390;2023-06-10T06:52:42;48849.69;;;-144.47;48.25
31585;BME280;18191;51.288;12.390;2023-06-10T06:57:34;48857.66;;;-144.47;46.64
31585;BME280;18191;51.288;12.390;2023-06-10T07:02:24;48827.81;;;-144.47;47.19
31585;BME280;18191;51.288;12.390;2023-06-10T07:07:15;48805.94;;;-144.47;48.45
31585;BME280;18191;51.288;12.390;2023-06-10T07:12:05;48829.81;;;-144.47;45.04
31585;BME280;18191;51.288;12.390;2023-06-10T07:16:56;48845.72;;;-144.47;48.12
31585;BME280;18191;51.288;12.390;2023-06-10T07:21:46;48799.97;;;-144.47;48.37
31585;BME280;18191;51.288;12.390;2023-06-10T07:26:37;48845.72;;;-144.47;47.34
31585;BME280;18191;51.288;12.390;2023-06-10T07:31:28;48853.69;;;-144.47;46.83
31585;BME280;18191;51.288;12.390;2023-06-10T07:36:18;48839.75;;;-144.47;44.21
31585;BME280;18191;51.288;12.390;2023-06-10T07:41:09;48865.63;;;-144.47;46.33
31585;BME280;18191;51.288;12.390;2023-06-10T07:45:59;48861.63;;;-144.47;44.43
31585;BME280;18191;51.288;12.390;2023-06-10T07:50:50;48873.56;;;-144.47;45.97
31585;BME280;18191;51.288;12.390;2023-06-10T07:55:40;48881.53;;;-144.47;47.35
31585;BME280;18191;51.288;12.390;2023-06-10T08:00:30;48891.47;;;-144.47;44.88
31585;BME280;18191;51.288;12.390;2023-06-10T08:05:21;48881.53;;;-144.47;45.31
31585;BME280;18191;51.288;12.390;2023-06-10T08:10:11;48871.59;;;-144.47;47.05
31585;BME280;18191;51.288;12.390;2023-06-10T08:15:02;48881.53;;;-144.47;45.02
31585;BME280;18191;51.288;12.390;2023-06-10T08:19:54;48865.63;;;-144.47;45.51
31585;BME280;18191;51.288;12.390;2023-06-10T08:24:44;48861.63;;;-144.47;45.78
31585;BME280;18191;51.288;12.390;2023-06-10T08:29:34;48893.47;;;-144.47;45.35
31585;BME280;18191;51.288;12.390;2023-06-10T08:34:25;48917.34;;;-144.47;46.90
31585;BME280;18191;51.288;12.390;2023-06-10T08:39:15;48861.63;;;-144.47;47.05
31585;BME280;18191;51.288;12.390;2023-06-10T08:44:17;48853.69;;;-144.47;44.66
31585;BME280;18191;51.288;12.390;2023-06-10T08:49:15;48857.66;;;-144.47;42.90
31585;BME280;18191;51.288;12.390;2023-06-10T08:54:24;48843.72;;;-144.47;43.25
31585;BME280;18191;51.288;12.390;2023-06-10T08:59:15;48857.66;;;-144.47;41.78
31585;BME280;18191;51.288;12.390;2023-06-10T09:04:06;48853.69;;;-144.47;41.73
31585;BME280;18191;51.288;12.390;2023-06-10T09:08:57;48857.66;;;-144.47;41.12
31585;BME280;18191;51.288;12.390;2023-06-10T09:13:47;48835.78;;;-144.47;41.34
31585;BME280;18191;51.288;12.390;2023-06-10T09:18:37;48819.88;;;-144.47;40.85
31585;BME280;18191;51.288;12.390;2023-06-10T09:23:28;48837.78;;;-144.47;40.63
31585;BME280;18191;51.288;12.390;2023-06-10T09:28:19;48853.69;;;-144.47;43.72
31585;BME280;18191;51.288;12.390;2023-06-10T09:33:12;48839.75;;;-144.47;39.67
31585;BME280;18191;51.288;12.390;2023-06-10T09:38:03;48837.78;;;-144.47;41.43
31585;BME280;18191;51.288;12.390;2023-06-10T09:42:57;48851.69;;;-144.47;41.94
31585;BME280;18191;51.288;12.390;2023-06-10T09:47:52;48869.59;;;-144.47;39.41
31585;BME280;18191;51.288;12.390;2023-06-10T09:52:45;48869.59;;;-144.47;38.55
31585;BME280;18191;51.288;12.390;2023-06-10T09:57:36;48829.81;;;-144.47;38.33
31585;BME280;18191;51.288;12.390;2023-06-10T10:02:26;48837.78;;;-144.47;38.46
31585;BME280;18191;51.288;12.390;2023-06-10T10:07:16;48903.41;;;-144.47;37.85
31585;BME280;18191;51.288;12.390;2023-06-10T10:12:12;48861.63;;;-144.47;37.63
31585;BME280;18191;51.288;12.390;2023-06-10T10:17:07;48865.63;;;-144.47;38.81
31585;BME280;18191;51.288;12.390;2023-06-10T10:22:07;48849.69;;;-144.47;38.74
31585;BME280;18191;51.288;12.390;2023-06-10T10:27:01;48911.38;;;-144.47;38.23
31585;BME280;18191;51.288;12.390;2023-06-10T10:31:54;48865.63;;;-144.47;38.44
31585;BME280;18191;51.288;12.390;2023-06-10T10:36:46;48861.63;;;-144.47;39.42
31585;BME280;18191;51.288;12.390;2023-06-10T10:41:39;48857.66;;;-144.47;36.82
31585;BME280;18191;51.288;12.390;2023-06-10T10:46:29;48855.66;;;-144.47;37.10
31585;BME280;18191;51.288;12.390;2023-06-10T10:51:22;48845.72;;;-144.47;36.09
31585;BME280;18191;51.288;12.390;2023-06-10T10:56:16;48849.69;;;-144.47;35.68
31585;BME280;18191;51.288;12.390;2023-06-10T11:01:13;48907.38;;;-144.47;35.40
31585;BME280;18191;51.288;12.390;2023-06-10T11:06:12;48881.53;;;-144.47;34.07
31585;BME280;18191;51.288;12.390;2023-06-10T11:11:18;48853.69;;;-144.47;35.20
31585;BME280;18191;51.288;12.390;2023-06-10T11:16:09;48873.56;;;-144.47;34.69
31585;BME280;18191;51.288;12.390;2023-06-10T11:21:02;48885.50;;;-144.47;34.03
31585;BME280;18191;51.288;12.390;2023-06-10T11:26:19;48865.63;;;-144.47;33.46
31585;BME280;18191;51.288;12.390;2023-06-10T11:31:25;48861.63;;;-144.47;33.96
31585;BME280;18191;51.288;12.390;2023-06-10T11:36:16;48851.69;;;-144.47;33.51
31585;BME280;18191;51.288;12.390;2023-06-10T11:41:07;48857.66;;;-144.47;31.75
31585;BME280;18191;51.288;12.390;2023-06-10T11:45:57;48869.59;;;-144.47;30.87
31585;BME280;18191;51.288;12.390;2023-06-10T11:50:47;48869.59;;;-144.47;32.27
31585;BME280;18191;51.288;12.390;2023-06-10T11:55:51;48867.59;;;-144.47;32.85
31585;BME280;18191;51.288;12.390;2023-06-10T12:00:49;48873.56;;;-144.47;33.06
31585;BME280;18191;51.288;12.390;2023-06-10T12:05:39;48889.50;;;-144.47;32.95
31585;BME280;18191;51.288;12.390;2023-06-10T12:10:30;48817.88;;;-144.47;31.91
31585;BME280;18191;51.288;12.390;2023-06-10T12:15:24;48817.88;;;-144.47;31.70
31585;BME280;18191;51.288;12.390;2023-06-10T12:20:27;48831.81;;;-144.47;30.52
31585;BME280;18191;51.288;12.390;2023-06-10T12:25:27;48782.06;;;-144.47;30.41
31585;BME280;18191;51.288;12.390;2023-06-10T12:30:19;48853.69;;;-144.47;43.10
31585;BME280;18191;51.288;12.390;2023-06-10T12:35:12;48913.34;;;-144.47;57.14
31585;BME280;18191;51.288;12.390;2023-06-10T12:40:03;48885.50;;;-144.47;64.24
31585;BME280;18191;51.288;12.390;2023-06-10T12:44:54;48913.34;;;-144.47;56.16
31585;BME280;18191;51.288;12.390;2023-06-10T12:49:45;48899.44;;;-144.47;57.99
31585;BME280;18191;51.288;12.390;2023-06-10T12:54:35;48845.72;;;-144.47;55.98
31585;BME280;18191;51.288;12.390;2023-06-10T12:59:26;48935.25;;;-144.47;49.42
31585;BME280;18191;51.288;12.390;2023-06-10T13:04:17;48863.63;;;-144.47;41.97
31585;BME280;18191;51.288;12.390;2023-06-10T13:09:08;48905.41;;;-144.47;38.93
31585;BME280;18191;51.288;12.390;2023-06-10T13:13:58;48897.44;;;-144.47;40.34
31585;BME280;18191;51.288;12.390;2023-06-10T13:18:49;48903.41;;;-144.47;39.29
31585;BME280;18191;51.288;12.390;2023-06-10T13:23:39;48885.50;;;-144.47;38.10
31585;BME280;18191;51.288;12.390;2023-06-10T13:28:30;48887.50;;;-144.47;39.26
31585;BME280;18191;51.288;12.390;2023-06-10T13:33:20;48893.47;;;-144.47;37.32
31585;BME280;18191;51.288;12.390;2023-06-10T13:38:11;48885.50;;;-144.47;37.63
31585;BME280;18191;51.288;12.390;2023-06-10T13:43:02;48893.47;;;-144.47;38.52
31585;BME280;18191;51.288;12.390;2023-06-10T13:47:52;48873.56;;;-144.47;38.32
31585;BME280;18191;51.288;12.390;2023-06-10T13:52:43;48883.53;;;-144.47;37.92
31585;BME280;18191;51.288;12.390;2023-06-10T13:57:33;48839.75;;;-144.47;36.49
31585;BME280;18191;51.288;12.390;2023-06-10T14:02:23;48865.63;;;-144.47;34.44
31585;BME280;18191;51.288;12.390;2023-06-10T14:07:14;48893.47;;;-144.47;35.33
31585;BME280;18191;51.288;12.390;2023-06-10T14:12:04;48879.53;;;-144.47;31.81
31585;BME280;18191;51.288;12.390;2023-06-10T14:16:55;48841.75;;;-144.47;33.02
31585;BME280;18191;51.288;12.390;2023-06-10T14:21:45;48873.56;;;-144.47;32.77
31585;BME280;18191;51.288;12.390;2023-06-10T14:26:35;48865.63;;;-144.47;32.75
31585;BME280;18191;51.288;12.390;2023-06-10T14:31:25;48857.66;;;-144.47;33.53
31585;BME280;18191;51.288;12.390;2023-06-10T14:36:16;48853.69;;;-144.47;32.17
31585;BME280;18191;51.288;12.390;2023-06-10T14:41:06;48857.66;;;-144.47;32.19
31585;BME280;18191;51.288;12.390;2023-06-10T14:45:57;48879.53;;;-144.47;32.38
31585;BME280;18191;51.288;12.390;2023-06-10T14:50:47;48879.53;;;-144.47;33.10
31585;BME280;18191;51.288;12.390;2023-06-10T14:55:40;48881.53;;;-144.47;32.74
31585;BME280;18191;51.288;12.390;2023-06-10T15:00:31;48869.59;;;-144.47;32.61
31585;BME280;18191;51.288;12.390;2023-06-10T15:05:21;48837.78;;;-144.47;32.89
31585;BME280;18191;51.288;12.390;2023-06-10T15:10:11;48887.50;;;-144.47;31.66
31585;BME280;18191;51.288;12.390;2023-06-10T15:15:02;48871.59;;;-144.47;34.49
31585;BME280;18191;51.288;12.390;2023-06-10T15:19:52;48883.53;;;-144.47;34.33
31585;BME280;18191;51.288;12.390;2023-06-10T15:24:43;48849.69;;;-144.47;32.37
31585;BME280;18191;51.288;12.390;2023-06-10T15:29:33;48851.69;;;-144.47;33.42
31585;BME280;18191;51.288;12.390;2023-06-10T15:34:23;48869.59;;;-144.47;33.29
31585;BME280;18191;51.288;12.390;2023-06-10T15:39:13;48897.44;;;-144.47;33.59
31585;BME280;18191;51.288;12.390;2023-06-10T15:44:04;48853.69;;;-144.47;33.67
31585;BME280;18191;51.288;12.390;2023-06-10T15:48:54;48833.78;;;-144.47;33.12
31585;BME280;18191;51.288;12.390;2023-06-10T15:53:45;48863.63;;;-144.47;33.73
31585;BME280;18191;51.288;12.390;2023-06-10T15:58:37;48869.59;;;-144.47;33.78
31585;BME280;18191;51.288;12.390;2023-06-10T16:03:27;48841.75;;;-144.47;33.30
31585;BME280;18191;51.288;12.390;2023-06-10T16:08:17;48857.66;;;-144.47;32.99
31585;BME280;18191;51.288;12.390;2023-06-10T16:13:08;48861.63;;;-144.47;33.06
31585;BME280;18191;51.288;12.390;2023-06-10T16:17:58;48877.56;;;-144.47;33.71
31585;BME280;18191;51.288;12.390;2023-06-10T16:22:48;48861.63;;;-144.47;33.64
31585;BME280;18191;51.288;12.390;2023-06-10T16:27:38;48857.66;;;-144.47;34.18
31585;BME280;18191;51.288;12.390;2023-06-10T16:32:29;48841.75;;;-144.47;33.58
31585;BME280;18191;51.288;12.390;2023-06-10T16:37:19;48893.47;;;-144.47;33.58
31585;BME280;18191;51.288;12.390;2023-06-10T16:42:09;48853.69;;;-144.47;33.63
31585;BME280;18191;51.288;12.390;2023-06-10T16:46:59;48849.69;;;-144.47;32.73
31585;BME280;18191;51.288;12.390;2023-06-10T16:51:50;48833.78;;;-144.47;32.72
31585;BME280;18191;51.288;12.390;2023-06-10T16:56:40;48865.63;;;-144.47;32.78
31585;BME280;18191;51.288;12.390;2023-06-10T17:01:30;48869.59;;;-144.47;31.64
31585;BME280;18191;51.288;12.390;2023-06-10T17:06:21;48849.69;;;-144.47;31.52
31585;BME280;18191;51.288;12.390;2023-06-10T17:11:11;48835.78;;;-144.47;32.88
31585;BME280;18191;51.288;12.390;2023-06-10T17:16:01;48851.69;;;-144.47;31.63
31585;BME280;18191;51.288;12.390;2023-06-10T17:20:51;48833.78;;;-144.47;31.96
31585;BME280;18191;51.288;12.390;2023-06-10T17:25:42;48841.75;;;-144.47;30.98
31585;BME280;18191;51.288;12.390;2023-06-10T17:30:32;48817.88;;;-144.47;31.06
31585;BME280;18191;51.288;12.390;2023-06-10T17:35:22;48825.84;;;-144.47;32.01
31585;BME280;18191;51.288;12.390;2023-06-10T17:40:13;48861.63;;;-144.47;34.05
31585;BME280;18191;51.288;12.390;2023-06-10T17:45:03;48877.56;;;-144.47;34.90
31585;BME280;18191;51.288;12.390;2023-06-10T17:49:53;48851.69;;;-144.47;34.77
31585;BME280;18191;51.288;12.390;2023-06-10T17:54:44;48859.66;;;-144.47;34.96
31585;BME280;18191;51.288;12.390;2023-06-10T17:59:34;48853.69;;;-144.47;34.64
31585;BME280;18191;51.288;12.390;2023-06-10T18:04:24;48897.44;;;-144.47;36.42
31585;BME280;18191;51.288;12.390;2023-06-10T18:09:15;48857.66;;;-144.47;36.19
31585;BME280;18191;51.288;12.390;2023-06-10T18:14:05;48849.69;;;-144.47;36.24
31585;BME280;18191;51.288;12.390;2023-06-10T18:18:55;48847.72;;;-144.47;36.46
31585;BME280;18191;51.288;12.390;2023-06-10T18:23:45;48861.63;;;-144.47;37.16
31585;BME280;18191;51.288;12.390;2023-06-10T18:28:36;48853.69;;;-144.47;37.79
31585;BME280;18191;51.288;12.390;2023-06-10T18:33:27;48865.63;;;-144.47;38.05
31585;BME280;18191;51.288;12.390;2023-06-10T18:38:17;48895.44;;;-144.47;39.13
31585;BME280;18191;51.288;12.390;2023-06-10T18:43:09;48843.72;;;-144.47;38.00
31585;BME280;18191;51.288;12.390;2023-06-10T18:47:59;48895.44;;;-144.47;38.67
31585;BME280;18191;51.288;12.390;2023-06-10T18:52:51;48869.59;;;-144.47;37.84
31585;BME280;18191;51.288;12.390;2023-06-10T18:57:41;48883.53;;;-144.47;38.02
31585;BME280;18191;51.288;12.390;2023-06-10T19:02:33;48909.38;;;-144.47;39.32
31585;BME280;18191;51.288;12.390;2023-06-10T19:07:26;48861.63;;;-144.47;39.91
31585;BME280;18191;51.288;12.390;2023-06-10T19:12:16;48873.56;;;-144.47;41.89
31585;BME280;18191;51.288;12.390;2023-06-10T19:17:09;48869.59;;;-144.47;41.68
31585;BME280;18191;51.288;12.390;2023-06-10T19:21:59;48905.41;;;-144.47;45.57
31585;BME280;18191;51.288;12.390;2023-06-10T19:26:50;48877.56;;;-144.47;46.96
31585;BME280;18191;51.288;12.390;2023-06-10T19:31:40;48835.78;;;-144.47;43.75
31585;BME280;18191;51.288;12.390;2023-06-10T19:36:30;48873.56;;;-144.47;42.84
31585;BME280;18191;51.288;12.390;2023-06-10T19:41:20;48875.56;;;-144.47;42.24
31585;BME280;18191;51.288;12.390;2023-06-10T19:46:11;48855.66;;;-144.47;43.44
31585;BME280;18191;51.288;12.390;2023-06-10T19:51:02;48897.44;;;-144.47;46.10
31585;BME280;18191;51.288;12.390;2023-06-10T19:55:52;48907.38;;;-144.47;45.88
31585;BME280;18191;51.288;12.390;2023-06-10T20:00:42;48905.41;;;-144.47;48.01
31585;BME280;18191;51.288;12.390;2023-06-10T20:05:33;48881.53;;;-144.47;49.52
31585;BME280;18191;51.288;12.390;2023-06-10T20:10:23;48889.50;;;-144.47;50.72
31585;BME280;18191;51.288;12.390;2023-06-10T20:15:13;48889.50;;;-144.47;52.39
31585;BME280;18191;51.288;12.390;2023-06-10T20:20:04;48853.69;;;-144.47;54.12
31585;BME280;18191;51.288;12.390;2023-06-10T20:24:55;48889.50;;;-144.47;54.69
31585;BME280;18191;51.288;12.390;2023-06-10T20:29:45;48911.38;;;-144.47;56.21
31585;BME280;18191;51.288;12.390;2023-06-10T20:34:35;48897.44;;;-144.47;56.15
31585;BME280;18191;51.288;12.390;2023-06-10T20:39:26;48889.50;;;-144.47;57.69
31585;BME280;18191;51.288;12.390;2023-06-10T20:44:16;48847.72;;;-144.47;57.92
31585;BME280;18191;51.288;12.390;2023-06-10T20:49:07;48907.38;;;-144.47;59.29
31585;BME280;18191;51.288;12.390;2023-06-10T20:53:57;48917.34;;;-144.47;59.16
31585;BME280;18191;51.288;12.390;2023-06-10T20:58:47;48881.53;;;-144.47;60.72
31585;BME280;18191;51.288;12.390;2023-06-10T21:03:37;48913.34;;;-144.47;60.95
31585;BME280;18191;51.288;12.390;2023-06-10T21:08:28;48887.50;;;-144.47;61.68
31585;BME280;18191;51.288;12.390;2023-06-10T21:13:18;48873.56;;;-144.47;62.27
31585;BME280;18191;51.288;12.390;2023-06-10T21:18:09;48893.47;;;-144.47;63.08
31585;BME280;18191;51.288;12.390;2023-06-10T21:22:59;48921.31;;;-144.47;63.78
31585;BME280;18191;51.288;12.390;2023-06-10T21:27:50;48893.47;;;-144.47;64.42
31585;BME280;18191;51.288;12.390;2023-06-10T21:32:40;48885.50;;;-144.47;65.15
31585;BME280;18191;51.288;12.390;2023-06-10T21:37:30;48915.34;;;-144.47;64.84
31585;BME280;18191;51.288;12.390;2023-06-10T21:42:21;48861.63;;;-144.47;64.95
31585;BME280;18191;51.288;12.390;2023-06-10T21:47:11;48931.25;;;-144.47;65.20
31585;BME280;18191;51.288;12.390;2023-06-10T21:52:01;48897.44;;;-144.47;65.59
31585;BME280;18191;51.288;12.390;2023-06-10T21:56:52;48881.53;;;-144.47;66.21
31585;BME280;18191;51.288;12.390;2023-06-10T22:01:42;48921.31;;;-144.47;62.84
31585;BME280;18191;51.288;12.390;2023-06-10T22:06:32;48917.34;;;-144.47;59.51
31585;BME280;18191;51.288;12.390;2023-06-10T22:11:24;48883.53;;;-144.47;59.03
31585;BME280;18191;51.288;12.390;2023-06-10T22:16:16;48885.50;;;-144.47;57.38
31585;BME280;18191;51.288;12.390;2023-06-10T22:21:06;48893.47;;;-144.47;56.52
31585;BME280;18191;51.288;12.390;2023-06-10T22:25:56;48909.38;;;-144.47;56.30
31585;BME280;18191;51.288;12.390;2023-06-10T22:30:47;48889.50;;;-144.47;54.65
31585;BME280;18191;51.288;12.390;2023-06-10T22:35:37;48893.47;;;-144.47;55.84
31585;BME280;18191;51.288;12.390;2023-06-10T22:40:27;48907.38;;;-144.47;55.07
31585;BME280;18191;51.288;12.390;2023-06-10T22:45:18;48873.56;;;-144.47;53.47
31585;BME280;18191;51.288;12.390;2023-06-10T22:50:08;48873.56;;;-144.47;55.54
31585;BME280;18191;51.288;12.390;2023-06-10T22:54:58;48885.50;;;-144.47;53.65
31585;BME280;18191;51.288;12.390;2023-06-10T22:59:49;48861.63;;;-144.47;54.47
31585;BME280;18191;51.288;12.390;2023-06-10T23:04:39;48893.47;;;-144.47;54.81
31585;BME280;18191;51.288;12.390;2023-06-10T23:09:29;48887.50;;;-144.47;54.00
31585;BME280;18191;51.288;12.390;2023-06-10T23:14:20;48903.41;;;-144.47;54.87
31585;BME280;18191;51.288;12.390;2023-06-10T23:19:12;48901.41;;;-144.47;53.68
31585;BME280;18191;51.288;12.390;2023-06-10T23:24:03;48875.56;;;-144.47;53.71
31585;BME280;18191;51.288;12.390;2023-06-10T23:28:54;48909.38;;;-144.47;52.79
31585;BME280;18191;51.288;12.390;2023-06-10T23:33:44;48865.63;;;-144.47;52.37
31585;BME280;18191;51.288;12.390;2023-06-10T23:38:35;48853.69;;;-144.47;52.21
31585;BME280;18191;51.288;12.390;2023-06-10T23:43:25;48909.38;;;-144.47;53.97
31585;BME280;18191;51.288;12.390;2023-06-10T23:48:16;48873.56;;;-144.47;52.87
31585;BME280;18191;51.288;12.390;2023-06-10T23:53:06;48877.56;;;-144.47;54.08
31585;BME280;18191;51.288;12.390;2023-06-10T23:57:56;48907.38;;;-144.47;53.20
